Time;durP1;ratioP1;P1;durP2;ratioP2;P2;SDS_P1;SDS_P2;PMS_P1;PMS_P2;Temp;Humidity;BMP_temperature;BMP_pressure;BME280_temperature;BME280_humidity;BME280_pressure;Samples;Min_cycle;Max_cycle;Signal;HPM_P1;HPM_P2
2022/06/17 00:00:24;;;;;;;5.80;5.40;;;14.20;99.90;;;;;;5050582;28;20471;-74
2022/06/17 00:03:15;;;;;;;6.07;5.60;;;14.20;99.90;;;;;;5053115;28;20559;-74
2022/06/17 00:06:10;;;;;;;6.00;5.50;;;14.20;99.90;;;;;;5055316;28;20499;-74
2022/06/17 00:09:06;;;;;;;7.50;5.60;;;14.20;99.90;;;;;;5054115;28;20449;-74
2022/06/17 00:12:02;;;;;;;8.00;5.83;;;14.10;99.90;;;;;;5056878;28;20548;-74
2022/06/17 00:18:01;;;;;;;5.80;5.27;;;14.00;99.90;;;;;;5053617;28;21049;-74
2022/06/17 00:21:20;;;;;;;6.37;5.80;;;13.90;99.90;;;;;;5052639;28;20652;-73
2022/06/17 00:24:15;;;;;;;7.50;6.13;;;13.90;99.90;;;;;;5053383;28;20557;-74
2022/06/17 00:27:14;;;;;;;6.80;6.20;;;14.00;99.90;;;;;;5049423;28;20465;-74
2022/06/17 00:30:06;;;;;;;7.10;6.40;;;13.90;99.90;;;;;;5049042;28;20465;-74
2022/06/17 00:33:13;;;;;;;6.90;6.30;;;13.80;99.90;;;;;;5057261;28;20894;-74
2022/06/17 00:36:17;;;;;;;7.70;6.90;;;13.80;99.90;;;;;;5050057;28;20477;-74
2022/06/17 00:39:27;;;;;;;7.97;6.97;;;13.80;99.90;;;;;;5052782;28;20552;-74
2022/06/17 00:42:29;;;;;;;7.23;6.63;;;13.70;99.90;;;;;;5054389;28;20465;-73
2022/06/17 00:45:26;;;;;;;7.13;6.53;;;13.70;99.90;;;;;;5057140;28;20474;-73
2022/06/17 00:48:21;;;;;;;7.23;6.50;;;13.60;99.90;;;;;;5057607;28;20555;-74
2022/06/17 00:51:17;;;;;;;7.57;6.50;;;13.60;99.90;;;;;;5061034;28;20494;-73
2022/06/17 00:54:17;;;;;;;7.30;6.60;;;13.50;99.90;;;;;;5050949;28;20583;-74
2022/06/17 00:57:25;;;;;;;8.20;7.50;;;13.40;99.90;;;;;;5053840;28;20535;-73
2022/06/17 01:00:32;;;;;;;7.13;6.57;;;13.40;99.90;;;;;;5047168;28;20508;-74
2022/06/17 01:03:24;;;;;;;8.13;7.30;;;13.40;99.90;;;;;;5054478;28;20556;-73
2022/06/17 01:06:19;;;;;;;7.50;6.83;;;13.40;99.90;;;;;;5050966;28;20485;-73
2022/06/17 01:12:23;;;;;;;7.17;6.57;;;13.30;99.90;;;;;;5056839;28;20532;-72
2022/06/17 01:15:37;;;;;;;7.20;6.60;;;13.20;99.90;;;;;;5054052;28;20557;-73
2022/06/17 01:18:28;;;;;;;7.67;7.07;;;13.20;99.90;;;;;;5051423;28;20453;-73
2022/06/17 01:21:27;;;;;;;8.80;8.00;;;13.20;99.90;;;;;;5053890;28;20532;-73
2022/06/17 01:24:20;;;;;;;7.33;6.73;;;13.10;99.90;;;;;;5051742;28;20470;-74
2022/06/17 01:27:13;;;;;;;7.17;6.47;;;13.00;99.90;;;;;;5054726;28;20482;-74
2022/06/17 01:30:08;;;;;;;7.33;6.67;;;13.00;99.90;;;;;;5046498;28;20458;-73
2022/06/17 01:32:59;;;;;;;7.23;6.57;;;13.00;99.90;;;;;;5050301;28;20958;-73
2022/06/17 01:35:57;;;;;;;7.00;6.50;;;13.00;99.90;;;;;;5049001;28;20482;-74
2022/06/17 01:39:03;;;;;;;7.80;6.80;;;12.90;99.90;;;;;;5052854;28;20604;-74
2022/06/17 01:42:04;;;;;;;6.67;6.17;;;12.90;99.90;;;;;;5035350;28;20829;-74
2022/06/17 01:44:57;;;;;;;8.23;7.50;;;12.90;99.90;;;;;;5050133;28;20465;-74
2022/06/17 01:47:47;;;;;;;7.00;6.40;;;12.90;99.90;;;;;;5056351;28;20507;-74
2022/06/17 01:50:39;;;;;;;8.10;7.30;;;12.80;99.90;;;;;;5050056;28;20509;-73
2022/06/17 01:53:32;;;;;;;7.40;6.70;;;12.80;99.90;;;;;;5051032;28;20576;-73
2022/06/17 01:56:25;;;;;;;7.60;7.00;;;12.70;99.90;;;;;;5053490;28;21017;-73
2022/06/17 01:59:19;;;;;;;7.70;7.10;;;12.70;99.90;;;;;;5051193;28;21092;-74
2022/06/17 02:02:16;;;;;;;7.77;7.13;;;12.70;99.90;;;;;;5051296;28;20966;-73
2022/06/17 02:05:11;;;;;;;8.03;7.33;;;12.60;99.90;;;;;;5048674;28;20528;-73
2022/06/17 02:08:06;;;;;;;7.80;7.20;;;12.60;99.90;;;;;;5051039;28;20512;-72
2022/06/17 02:10:57;;;;;;;7.67;6.90;;;12.60;99.90;;;;;;5052688;28;20572;-73
2022/06/17 02:13:56;;;;;;;8.00;7.30;;;12.60;99.90;;;;;;5051968;28;20985;-73
2022/06/17 02:16:51;;;;;;;8.80;8.00;;;12.50;99.90;;;;;;5054279;28;20455;-72
2022/06/17 02:19:42;;;;;;;8.07;7.47;;;12.50;99.90;;;;;;5052881;28;20446;-73
2022/06/17 02:22:39;;;;;;;7.97;7.27;;;12.50;99.90;;;;;;5051161;28;20485;-73
2022/06/17 02:25:39;;;;;;;8.40;7.60;;;12.50;99.90;;;;;;5052708;28;21041;-74
2022/06/17 02:28:36;;;;;;;9.03;8.23;;;12.50;99.90;;;;;;5052593;28;20443;-73
2022/06/17 02:31:39;;;;;;;8.03;7.33;;;12.50;99.90;;;;;;5052917;28;20974;-73
2022/06/17 02:34:49;;;;;;;7.57;6.97;;;12.40;99.90;;;;;;5050966;28;20499;-72
2022/06/17 02:37:42;;;;;;;9.30;7.70;;;12.30;99.90;;;;;;5051080;28;20550;-73
2022/06/17 02:40:40;;;;;;;8.50;7.80;;;12.40;99.90;;;;;;5051512;28;20447;-73
2022/06/17 02:43:40;;;;;;;7.23;6.53;;;12.30;99.90;;;;;;5051323;28;21033;-73
2022/06/17 02:46:37;;;;;;;8.60;7.80;;;12.30;99.90;;;;;;5042248;28;20471;-73
2022/06/17 02:49:32;;;;;;;8.97;8.17;;;12.30;99.90;;;;;;5053850;28;20476;-73
2022/06/17 02:52:28;;;;;;;8.80;8.00;;;12.20;99.90;;;;;;5051118;28;20454;-73
2022/06/17 02:55:41;;;;;;;9.10;8.20;;;12.20;99.90;;;;;;5050210;28;20470;-73
2022/06/17 02:58:54;;;;;;;8.93;8.13;;;12.20;99.90;;;;;;5051836;28;20552;-73
2022/06/17 03:01:47;;;;;;;8.53;7.83;;;12.20;99.90;;;;;;5052822;28;20608;-73
2022/06/17 03:05:02;;;;;;;8.40;7.70;;;12.10;99.90;;;;;;5048189;28;20509;-73
2022/06/17 03:07:55;;;;;;;8.77;7.97;;;12.10;99.90;;;;;;5051815;28;21130;-73
2022/06/17 03:10:49;;;;;;;8.73;7.93;;;12.10;99.90;;;;;;5050617;28;20544;-73
2022/06/17 03:13:43;;;;;;;8.17;7.50;;;12.10;99.90;;;;;;5043870;28;20481;-73
2022/06/17 03:16:47;;;;;;;7.77;7.10;;;12.10;99.90;;;;;;5053051;28;20455;-73
2022/06/17 03:19:49;;;;;;;8.70;7.80;;;12.10;99.90;;;;;;5050789;28;20520;-73
2022/06/17 03:22:39;;;;;;;8.70;8.00;;;12.10;99.90;;;;;;5049923;28;20541;-73
2022/06/17 03:25:40;;;;;;;8.07;7.23;;;12.00;99.90;;;;;;5051178;28;20565;-74
2022/06/17 03:28:45;;;;;;;8.00;7.30;;;12.00;99.90;;;;;;5061393;28;20481;-73
2022/06/17 03:31:39;;;;;;;8.13;7.33;;;12.00;99.90;;;;;;5048454;28;20571;-74
2022/06/17 03:34:35;;;;;;;8.57;7.83;;;12.00;99.90;;;;;;5050686;28;20536;-74
2022/06/17 03:37:38;;;;;;;8.13;7.43;;;12.00;99.90;;;;;;5052306;28;20868;-74
2022/06/17 03:40:39;;;;;;;8.37;7.47;;;12.00;99.90;;;;;;5045746;28;20473;-74
2022/06/17 03:43:39;;;;;;;8.50;7.80;;;12.00;99.90;;;;;;5051477;28;20837;-74
2022/06/17 03:46:43;;;;;;;7.73;6.93;;;12.00;99.90;;;;;;5045037;28;20512;-74
2022/06/17 03:49:44;;;;;;;8.17;7.47;;;12.10;99.90;;;;;;5052946;28;20454;-74
2022/06/17 03:52:50;;;;;;;9.13;8.23;;;12.10;99.90;;;;;;5052601;28;20533;-74
2022/06/17 03:55:47;;;;;;;8.70;7.70;;;12.10;99.90;;;;;;5049451;28;20637;-74
2022/06/17 03:58:56;;;;;;;8.17;7.57;;;12.20;99.90;;;;;;5048703;28;20925;-74
2022/06/17 04:02:07;;;;;;;7.90;7.20;;;12.20;99.90;;;;;;5043463;28;20592;-74
2022/06/17 04:05:17;;;;;;;9.33;8.53;;;12.20;99.90;;;;;;5051985;28;20525;-74
2022/06/17 04:08:08;;;;;;;8.53;7.83;;;12.20;99.90;;;;;;5048816;28;20465;-73
2022/06/17 04:11:07;;;;;;;9.30;8.50;;;12.30;99.90;;;;;;5050893;28;20560;-74
2022/06/17 04:14:34;;;;;;;8.27;7.57;;;12.40;99.90;;;;;;5052902;28;20505;-74
2022/06/17 04:17:54;;;;;;;9.70;8.80;;;12.40;99.90;;;;;;5049522;28;20842;-74
2022/06/17 04:20:52;;;;;;;9.50;8.47;;;12.50;99.90;;;;;;5050507;28;20490;-74
2022/06/17 04:23:47;;;;;;;9.70;8.77;;;12.50;99.90;;;;;;5051529;28;20474;-74
2022/06/17 04:26:52;;;;;;;11.23;10.13;;;12.50;99.90;;;;;;5052797;28;20512;-74
2022/06/17 04:29:55;;;;;;;11.70;10.57;;;12.60;99.90;;;;;;5051601;28;20454;-74
2022/06/17 04:33:03;;;;;;;11.70;10.50;;;12.60;99.90;;;;;;5053613;28;20482;-74
2022/06/17 04:36:27;;;;;;;;;;;;;;;;;;;;;
2022/06/17 04:39:31;;;;;;;10.30;9.40;;;12.80;99.90;;;;;;5049978;28;20500;-74
2022/06/17 04:42:40;;;;;;;11.50;10.40;;;12.80;99.90;;;;;;5043049;28;20461;-74
2022/06/17 04:45:33;;;;;;;11.00;10.00;;;12.90;99.90;;;;;;5050107;28;20496;-74
2022/06/17 04:48:36;;;;;;;12.33;11.20;;;13.00;99.90;;;;;;5049812;28;20470;-74
2022/06/17 04:51:51;;;;;;;13.87;12.13;;;13.00;99.90;;;;;;5038560;28;20611;-74
2022/06/17 04:55:03;;;;;;;13.23;12.03;;;13.10;99.90;;;;;;5044135;28;20489;-73
2022/06/17 04:58:19;;;;;;;15.30;13.27;;;13.20;99.90;;;;;;5051953;28;20970;-74
2022/06/17 05:01:17;;;;;;;13.97;12.77;;;13.30;99.90;;;;;;5043234;28;20515;-75
2022/06/17 05:04:13;;;;;;;13.97;12.40;;;13.30;99.90;;;;;;5048775;28;20539;-74
2022/06/17 05:07:15;;;;;;;13.93;12.53;;;13.40;99.90;;;;;;5046346;28;20553;-75
2022/06/17 05:10:21;;;;;;;14.50;13.23;;;13.50;99.90;;;;;;5046247;28;21364;-76
2022/06/17 05:13:23;;;;;;;13.90;12.50;;;13.60;99.90;;;;;;5043171;28;22659;-75
2022/06/17 05:16:13;;;;;;;13.43;11.70;;;13.70;99.90;;;;;;5045115;28;20493;-76
2022/06/17 05:19:06;;;;;;;13.50;12.40;;;13.80;99.90;;;;;;5046271;28;20461;-74
2022/06/17 05:22:04;;;;;;;17.93;13.60;;;13.80;99.90;;;;;;5043548;28;20822;-75
2022/06/17 05:24:59;;;;;;;13.40;12.10;;;13.90;99.90;;;;;;5045684;28;20474;-75
2022/06/17 05:28:02;;;;;;;12.33;11.10;;;14.00;99.90;;;;;;5044497;28;20634;-73
2022/06/17 05:30:56;;;;;;;16.43;12.80;;;14.10;99.90;;;;;;5045297;28;21004;-72
2022/06/17 05:33:59;;;;;;;14.90;13.50;;;14.20;99.90;;;;;;5042739;28;20537;-73
2022/06/17 05:36:47;;;;;;;14.77;13.30;;;14.20;99.90;;;;;;5038045;28;21213;-75
2022/06/17 05:39:35;;;;;;;13.20;11.80;;;14.30;99.90;;;;;;5040656;28;20458;-75
2022/06/17 05:42:27;;;;;;;13.70;12.30;;;14.40;99.90;;;;;;5044239;28;20509;-75
2022/06/17 05:45:24;;;;;;;13.57;12.27;;;14.40;99.90;;;;;;5044104;28;20480;-75
2022/06/17 05:48:23;;;;;;;11.50;10.00;;;14.50;99.90;;;;;;5039577;28;20470;-74
2022/06/17 05:51:16;;;;;;;10.70;9.60;;;14.60;99.90;;;;;;5037068;28;20449;-74
2022/06/17 05:54:07;;;;;;;11.37;10.43;;;14.70;99.90;;;;;;5045312;28;20584;-73
2022/06/17 05:57:02;;;;;;;14.20;9.90;;;14.70;99.90;;;;;;5044944;28;20472;-73
2022/06/17 05:59:53;;;;;;;11.20;10.30;;;14.80;99.90;;;;;;5044604;28;20996;-73
2022/06/17 06:02:44;;;;;;;11.27;10.23;;;14.90;99.90;;;;;;5042554;28;20948;-73
2022/06/17 06:05:35;;;;;;;11.70;10.50;;;15.00;99.90;;;;;;5029508;28;20485;-73
2022/06/17 06:08:26;;;;;;;10.37;9.10;;;15.10;99.90;;;;;;5047870;28;20481;-73
2022/06/17 06:11:14;;;;;;;11.03;9.87;;;15.10;99.90;;;;;;5043177;28;20446;-73
2022/06/17 06:14:03;;;;;;;9.60;8.80;;;15.20;99.90;;;;;;5033803;28;20486;-74
2022/06/17 06:16:51;;;;;;;9.30;8.50;;;15.30;99.90;;;;;;5029048;28;20531;-74
2022/06/17 06:19:40;;;;;;;9.57;8.67;;;15.30;99.90;;;;;;5031409;28;20446;-74
2022/06/17 06:22:29;;;;;;;8.67;7.70;;;15.40;99.90;;;;;;5030950;28;20452;-73
2022/06/17 06:25:20;;;;;;;7.67;6.97;;;15.50;99.90;;;;;;5032337;28;20488;-74
2022/06/17 06:28:10;;;;;;;8.70;7.83;;;15.60;99.90;;;;;;5032592;28;20472;-73
2022/06/17 06:31:02;;;;;;;8.27;7.47;;;15.60;99.90;;;;;;5034592;28;20844;-74
2022/06/17 06:33:50;;;;;;;7.27;6.57;;;15.70;99.90;;;;;;5024876;28;20474;-74
2022/06/17 06:36:39;;;;;;;5.47;5.03;;;15.80;99.90;;;;;;5027388;28;20457;-73
2022/06/17 06:39:28;;;;;;;6.57;5.80;;;15.90;99.90;;;;;;5038151;28;20453;-72
2022/06/17 06:42:19;;;;;;;5.50;5.10;;;15.90;99.90;;;;;;5034865;28;20624;-74
2022/06/17 06:45:12;;;;;;;6.53;5.93;;;16.00;99.90;;;;;;5027490;28;20528;-72
2022/06/17 06:48:05;;;;;;;5.80;5.17;;;16.10;99.90;;;;;;5032414;28;20487;-73
2022/06/17 06:50:53;;;;;;;7.00;5.80;;;16.20;99.90;;;;;;5015991;28;20451;-73
2022/06/17 06:53:42;;;;;;;5.00;4.60;;;16.30;99.90;;;;;;5028065;28;20601;-73
2022/06/17 06:56:32;;;;;;;5.87;5.27;;;16.30;99.90;;;;;;5024372;28;21031;-73
2022/06/17 06:59:20;;;;;;;5.07;4.40;;;16.40;99.90;;;;;;5038613;28;20960;-72
2022/06/17 07:02:09;;;;;;;6.17;5.57;;;16.50;99.90;;;;;;5035257;28;20449;-75
2022/06/17 07:05:00;;;;;;;5.50;5.00;;;16.60;99.90;;;;;;5029616;28;20516;-75
2022/06/17 07:07:51;;;;;;;5.60;5.10;;;16.60;99.90;;;;;;5048018;28;20458;-75
2022/06/17 07:10:41;;;;;;;4.77;4.37;;;16.70;99.90;;;;;;5037948;28;20457;-73
2022/06/17 07:13:33;;;;;;;8.07;4.50;;;16.80;99.90;;;;;;5044810;28;20552;-73
2022/06/17 07:16:21;;;;;;;5.73;4.20;;;16.80;99.90;;;;;;5045806;28;20468;-73
2022/06/17 07:19:10;;;;;;;5.33;4.93;;;16.90;99.90;;;;;;5044085;28;20457;-73
2022/06/17 07:21:59;;;;;;;6.37;4.40;;;17.00;99.90;;;;;;5043619;28;20454;-73
2022/06/17 07:24:50;;;;;;;5.27;4.87;;;17.10;99.90;;;;;;5044192;28;20969;-73
2022/06/17 07:27:40;;;;;;;4.60;4.20;;;17.10;99.90;;;;;;5049806;28;20499;-73
2022/06/17 07:30:33;;;;;;;5.07;4.63;;;17.20;99.90;;;;;;5043676;28;20478;-73
2022/06/17 07:33:24;;;;;;;6.20;5.00;;;17.20;99.90;;;;;;5038275;28;20608;-73
2022/06/17 07:39:53;;;;;;;6.63;4.77;;;17.40;99.90;;;;;;5049032;28;20479;-73
2022/06/17 07:42:37;;;;;;;4.43;4.13;;;17.50;99.90;;;;;;5043159;28;20487;-73
2022/06/17 07:45:29;;;;;;;4.30;3.90;;;17.50;99.90;;;;;;5041539;28;20478;-73
2022/06/17 07:48:19;;;;;;;6.40;4.90;;;17.60;99.90;;;;;;5046593;28;20651;-73
2022/06/17 07:51:08;;;;;;;5.17;4.70;;;17.70;99.90;;;;;;5043962;28;20519;-76
2022/06/17 07:54:00;;;;;;;5.50;4.30;;;17.70;99.90;;;;;;5045450;28;20483;-74
2022/06/17 07:56:50;;;;;;;4.90;4.47;;;17.90;99.90;;;;;;5044016;28;20609;-73
2022/06/17 07:59:38;;;;;;;5.67;4.90;;;17.90;99.90;;;;;;5038613;28;20490;-73
2022/06/17 08:02:26;;;;;;;5.13;4.73;;;18.00;99.90;;;;;;5041512;28;22301;-74
2022/06/17 08:05:17;;;;;;;4.70;4.30;;;18.10;99.90;;;;;;5046308;28;20483;-73
2022/06/17 08:08:08;;;;;;;7.20;5.00;;;18.10;99.90;;;;;;5040200;28;20504;-73
2022/06/17 08:10:59;;;;;;;4.90;4.40;;;18.20;99.90;;;;;;5039580;28;20458;-72
2022/06/17 08:13:49;;;;;;;5.30;4.77;;;18.30;99.90;;;;;;5038752;28;20584;-75
2022/06/17 08:16:39;;;;;;;4.97;4.57;;;18.30;99.90;;;;;;5039874;28;20451;-73
2022/06/17 08:19:27;;;;;;;5.40;4.80;;;18.40;99.90;;;;;;5040282;28;20489;-73
2022/06/17 08:22:20;;;;;;;4.70;4.30;;;18.50;99.90;;;;;;5043591;28;20653;-73
2022/06/17 08:25:08;;;;;;;6.50;4.70;;;18.50;99.90;;;;;;5040423;28;20875;-73
2022/06/17 08:28:02;;;;;;;4.80;4.20;;;18.60;99.90;;;;;;5043450;28;20479;-72
2022/06/17 08:30:52;;;;;;;4.20;3.90;;;18.70;99.90;;;;;;5042947;28;20603;-73
2022/06/17 08:33:41;;;;;;;4.53;4.13;;;18.80;99.90;;;;;;5039813;28;20487;-73
2022/06/17 08:36:31;;;;;;;4.00;3.60;;;18.90;99.90;;;;;;5045191;28;20564;-73
2022/06/17 08:39:21;;;;;;;4.47;4.07;;;19.10;99.90;;;;;;5040909;28;20494;-75
2022/06/17 08:42:25;;;;;;;4.90;3.73;;;19.20;99.90;;;;;;5041084;28;20950;-72
2022/06/17 08:45:25;;;;;;;4.20;3.90;;;19.30;99.90;;;;;;5039931;28;20474;-73
2022/06/17 08:48:23;;;;;;;5.57;5.00;;;19.50;99.90;;;;;;5047632;28;20809;-72
2022/06/17 08:51:26;;;;;;;3.83;3.53;;;19.60;99.90;;;;;;5048705;28;20474;-73
2022/06/17 08:54:31;;;;;;;5.83;4.17;;;19.70;99.90;;;;;;5044206;28;20481;-73
2022/06/17 08:57:24;;;;;;;6.83;4.20;;;19.70;99.90;;;;;;5043663;28;20442;-73
2022/06/17 09:00:21;;;;;;;4.37;4.00;;;19.80;99.90;;;;;;5046457;28;20443;-73
2022/06/17 09:03:47;;;;;;;4.93;4.47;;;19.90;99.90;;;;;;5044836;28;20603;-73
2022/06/17 09:06:53;;;;;;;4.27;3.87;;;20.00;99.90;;;;;;5046692;28;20600;-73
2022/06/17 09:10:06;;;;;;;4.67;3.60;;;20.00;99.90;;;;;;5040819;28;20667;-74
2022/06/17 09:13:06;;;;;;;3.93;3.63;;;20.10;99.90;;;;;;5043015;28;21059;-76
2022/06/17 09:16:01;;;;;;;3.97;3.67;;;20.20;99.90;;;;;;5041003;28;20577;-73
2022/06/17 09:18:56;;;;;;;4.20;3.80;;;20.30;99.90;;;;;;5046724;28;20450;-73
2022/06/17 09:21:50;;;;;;;4.03;3.73;;;20.40;99.90;;;;;;5042098;28;20463;-73
2022/06/17 09:24:40;;;;;;;4.23;3.93;;;20.50;99.90;;;;;;5040755;28;20562;-73
2022/06/17 09:27:35;;;;;;;6.70;4.40;;;20.50;99.90;;;;;;5046322;28;20446;-73
2022/06/17 09:30:29;;;;;;;5.13;4.33;;;20.60;99.90;;;;;;5040261;28;20508;-73
2022/06/17 09:33:21;;;;;;;4.63;4.23;;;20.70;99.90;;;;;;5038896;28;20853;-73
2022/06/17 09:36:12;;;;;;;4.27;3.90;;;20.80;99.90;;;;;;5041073;28;20474;-73
2022/06/17 09:39:05;;;;;;;4.23;3.93;;;20.80;99.90;;;;;;5044593;28;20466;-74
2022/06/17 09:41:58;;;;;;;5.20;4.80;;;20.90;99.90;;;;;;5041243;28;20459;-73
2022/06/17 09:44:54;;;;;;;5.07;4.67;;;21.00;99.90;;;;;;5043749;28;20639;-72
2022/06/17 09:47:47;;;;;;;5.70;5.20;;;21.10;99.90;;;;;;5044530;28;20450;-73
2022/06/17 09:50:42;;;;;;;5.03;4.53;;;21.20;99.90;;;;;;5048200;28;20474;-73
2022/06/17 09:53:34;;;;;;;5.63;4.90;;;21.20;99.90;;;;;;5042375;28;20497;-73
2022/06/17 09:56:29;;;;;;;7.23;6.37;;;21.30;99.90;;;;;;5044624;28;20473;-73
2022/06/17 09:59:23;;;;;;;5.20;4.80;;;21.30;99.90;;;;;;5042323;28;20567;-73
2022/06/17 10:02:22;;;;;;;5.57;5.07;;;21.40;99.90;;;;;;5038834;28;20978;-74
2022/06/17 10:05:15;;;;;;;8.20;4.93;;;21.40;99.90;;;;;;5044256;28;20851;-73
2022/06/17 10:08:13;;;;;;;5.17;4.67;;;21.50;99.90;;;;;;5044372;28;20486;-73
2022/06/17 10:11:07;;;;;;;6.20;5.70;;;21.50;99.90;;;;;;5043272;28;20572;-74
2022/06/17 10:14:13;;;;;;;6.37;5.30;;;21.60;99.90;;;;;;5036073;28;20478;-74
2022/06/17 10:20:34;;;;;;;5.60;5.10;;;21.70;99.90;;;;;;5048413;28;20451;-73
2022/06/17 10:23:32;;;;;;;6.73;5.40;;;21.80;99.90;;;;;;5038012;28;20518;-74
2022/06/17 10:26:32;;;;;;;5.50;5.00;;;21.80;99.90;;;;;;5026598;28;20451;-74
2022/06/17 10:29:49;;;;;;;5.90;5.33;;;21.90;99.90;;;;;;5038745;28;20994;-77
2022/06/17 10:32:40;;;;;;;5.87;5.37;;;21.90;99.90;;;;;;5040164;28;20599;-75
2022/06/17 10:35:33;;;;;;;6.33;4.47;;;21.90;99.90;;;;;;5041670;28;20478;-75
2022/06/17 10:38:28;;;;;;;6.83;4.97;;;22.00;99.90;;;;;;5044849;28;20545;-75
2022/06/17 10:41:17;;;;;;;4.97;4.50;;;22.00;99.90;;;;;;5042772;28;20560;-75
2022/06/17 10:44:09;;;;;;;6.00;4.50;;;22.10;99.90;;;;;;5047340;28;20490;-76
2022/06/17 10:47:16;;;;;;;4.70;4.30;;;22.20;99.90;;;;;;5040376;28;22669;-75
2022/06/17 10:50:16;;;;;;;5.43;5.03;;;22.30;99.90;;;;;;5040796;28;20534;-75
2022/06/17 10:53:14;;;;;;;4.87;4.40;;;22.40;99.90;;;;;;5045060;28;20555;-75
2022/06/17 10:56:09;;;;;;;5.10;4.60;;;22.40;99.90;;;;;;5047994;28;23031;-76
2022/06/17 10:59:00;;;;;;;5.80;5.00;;;22.50;99.90;;;;;;5046872;28;20600;-75
2022/06/17 11:01:53;;;;;;;5.20;4.80;;;22.50;99.90;;;;;;5049156;28;20506;-75
2022/06/17 11:04:50;;;;;;;4.97;4.23;;;22.50;99.90;;;;;;5037178;28;20478;-76
2022/06/17 11:07:49;;;;;;;5.13;4.40;;;22.50;99.90;;;;;;5049979;28;20542;-75
2022/06/17 11:10:42;;;;;;;7.47;4.43;;;22.50;99.90;;;;;;5051141;28;20465;-75
2022/06/17 11:13:30;;;;;;;4.00;3.70;;;22.50;99.90;;;;;;5051099;28;20674;-75
2022/06/17 11:16:21;;;;;;;4.83;4.43;;;22.50;99.90;;;;;;5055546;28;20663;-74
2022/06/17 11:19:14;;;;;;;4.67;4.20;;;22.50;99.90;;;;;;5046120;28;20454;-74
2022/06/17 11:22:04;;;;;;;4.67;4.23;;;22.50;99.90;;;;;;5043632;28;20531;-74
2022/06/17 11:24:57;;;;;;;4.70;4.10;;;22.50;99.90;;;;;;5043665;28;20632;-76
2022/06/17 11:27:53;;;;;;;5.73;5.23;;;22.60;99.90;;;;;;5048700;28;20480;-73
2022/06/17 11:30:51;;;;;;;4.53;4.23;;;22.50;99.90;;;;;;5034910;28;20944;-74
2022/06/17 11:33:55;;;;;;;4.93;4.57;;;22.60;99.90;;;;;;5038312;28;20481;-73
2022/06/17 11:36:59;;;;;;;4.67;4.30;;;22.70;99.90;;;;;;5041639;28;20524;-74
2022/06/17 11:39:48;;;;;;;4.87;4.47;;;22.70;99.90;;;;;;5042261;28;20878;-74
2022/06/17 11:42:51;;;;;;;5.50;4.70;;;22.70;99.90;;;;;;5039929;28;20456;-74
2022/06/17 11:45:45;;;;;;;5.33;4.90;;;22.70;99.90;;;;;;5037289;28;20508;-74
2022/06/17 11:48:41;;;;;;;4.67;4.27;;;22.70;99.90;;;;;;5049793;28;20447;-73
2022/06/17 11:51:34;;;;;;;4.80;4.40;;;22.80;99.90;;;;;;5049716;28;20544;-75
2022/06/17 11:54:26;;;;;;;4.70;4.30;;;22.80;99.90;;;;;;5043756;28;20871;-75
2022/06/17 11:57:18;;;;;;;4.13;3.80;;;22.80;99.90;;;;;;5035572;28;20458;-74
2022/06/17 12:00:27;;;;;;;4.57;4.17;;;22.90;99.90;;;;;;5030554;28;20502;-75
2022/06/17 12:03:17;;;;;;;4.77;4.37;;;22.90;99.90;;;;;;5035883;28;21443;-75
2022/06/17 12:06:07;;;;;;;4.43;4.03;;;23.00;99.90;;;;;;5030840;28;20555;-74
2022/06/17 12:09:03;;;;;;;5.27;4.73;;;23.00;99.90;;;;;;5039981;28;21036;-75
2022/06/17 12:11:54;;;;;;;5.73;5.13;;;23.00;99.90;;;;;;5038008;28;20514;-75
2022/06/17 12:14:51;;;;;;;5.27;4.43;;;23.10;99.90;;;;;;5034347;28;20512;-74
2022/06/17 12:17:42;;;;;;;4.63;4.33;;;23.10;99.90;;;;;;5037268;28;20459;-75
2022/06/17 12:20:44;;;;;;;4.23;3.93;;;23.10;99.90;;;;;;5038924;28;20446;-74
2022/06/17 12:23:39;;;;;;;5.73;5.23;;;23.10;99.90;;;;;;5040191;28;20847;-74
2022/06/17 12:26:32;;;;;;;4.23;3.67;;;23.00;99.90;;;;;;5047664;28;20465;-75
2022/06/17 12:29:27;;;;;;;4.87;4.30;;;23.00;99.90;;;;;;5042572;28;20458;-74
2022/06/17 12:32:26;;;;;;;4.33;4.03;;;23.00;99.90;;;;;;5041707;28;20490;-74
2022/06/17 12:35:22;;;;;;;4.60;4.27;;;23.00;99.90;;;;;;5028338;28;21012;-74
2022/06/17 12:38:23;;;;;;;4.40;3.70;;;23.00;99.90;;;;;;5032027;28;20466;-74
2022/06/17 12:41:17;;;;;;;4.63;4.23;;;23.00;99.90;;;;;;5033579;28;20481;-73
2022/06/17 12:44:15;;;;;;;4.43;4.13;;;23.00;99.90;;;;;;5038188;28;20844;-73
2022/06/17 12:47:10;;;;;;;5.27;4.43;;;23.00;99.90;;;;;;5033672;28;20458;-73
2022/06/17 12:53:25;;;;;;;5.03;4.53;;;23.10;99.90;;;;;;5039591;28;20469;-73
2022/06/17 12:56:32;;;;;;;5.13;4.63;;;23.10;99.90;;;;;;5034704;28;20664;-73
2022/06/17 12:59:30;;;;;;;7.00;5.10;;;23.10;99.90;;;;;;5035882;28;20453;-73
2022/06/17 13:02:27;;;;;;;4.97;4.67;;;23.10;99.90;;;;;;5038602;28;21353;-73
2022/06/17 13:05:22;;;;;;;5.00;4.43;;;23.10;99.90;;;;;;5036229;28;20481;-73
2022/06/17 13:08:32;;;;;;;6.33;5.20;;;23.20;99.90;;;;;;5039265;28;20481;-73
2022/06/17 13:11:26;;;;;;;5.80;5.40;;;23.30;99.90;;;;;;5042030;28;20474;-73
2022/06/17 13:14:23;;;;;;;5.67;5.27;;;23.40;99.90;;;;;;5041281;28;20573;-73
2022/06/17 13:17:18;;;;;;;6.37;5.87;;;23.60;99.90;;;;;;5039620;28;20531;-73
2022/06/17 13:20:14;;;;;;;5.37;4.67;;;23.70;99.90;;;;;;5039114;28;20619;-73
2022/06/17 13:23:11;;;;;;;5.50;5.00;;;23.80;99.90;;;;;;5038860;28;20548;-74
2022/06/17 13:26:06;;;;;;;4.80;4.40;;;24.00;99.90;;;;;;5033287;28;21059;-75
2022/06/17 13:29:01;;;;;;;5.33;4.83;;;24.10;99.90;;;;;;5039412;28;20449;-75
2022/06/17 13:31:54;;;;;;;7.03;5.23;;;24.10;99.90;;;;;;5039235;28;20517;-75
2022/06/17 13:34:46;;;;;;;6.40;4.77;;;24.20;99.90;;;;;;5035485;28;20547;-75
2022/06/17 13:37:37;;;;;;;5.60;4.97;;;24.30;99.90;;;;;;5041210;28;20504;-75
2022/06/17 13:40:33;;;;;;;4.50;4.10;;;24.30;99.90;;;;;;5044798;28;20511;-76
2022/06/17 13:43:29;;;;;;;5.10;4.70;;;24.30;99.90;;;;;;5044347;28;20481;-75
2022/06/17 13:46:26;;;;;;;4.50;4.20;;;24.20;99.90;;;;;;5043189;28;20547;-75
2022/06/17 13:49:31;;;;;;;4.50;4.10;;;24.20;99.90;;;;;;5039686;28;20465;-75
2022/06/17 13:52:30;;;;;;;4.60;4.20;;;24.20;99.90;;;;;;5032737;28;20573;-75
2022/06/17 13:55:31;;;;;;;4.53;4.27;;;24.20;99.90;;;;;;5037119;28;20573;-75
2022/06/17 13:58:28;;;;;;;4.77;4.37;;;24.20;99.90;;;;;;5038174;28;20450;-75
2022/06/17 14:01:37;;;;;;;5.03;4.63;;;24.20;99.90;;;;;;5035402;28;20520;-75
2022/06/17 14:04:25;;;;;;;5.00;4.60;;;24.10;99.90;;;;;;5033042;28;20481;-75
2022/06/17 14:07:14;;;;;;;5.40;4.90;;;24.10;99.90;;;;;;5037628;28;20470;-75
2022/06/17 14:10:32;;;;;;;7.13;5.00;;;24.10;99.90;;;;;;5033675;28;21489;-75
2022/06/17 14:13:30;;;;;;;4.97;4.50;;;24.00;99.90;;;;;;5020227;28;20503;-75
2022/06/17 14:16:29;;;;;;;4.87;4.40;;;24.00;99.90;;;;;;5030952;28;20458;-76
2022/06/17 14:19:24;;;;;;;5.20;4.70;;;24.00;99.90;;;;;;5054100;28;20458;-76
2022/06/17 14:22:31;;;;;;;4.57;4.20;;;24.00;99.90;;;;;;5036574;28;20912;-72
2022/06/17 14:25:27;;;;;;;7.67;4.80;;;24.00;99.90;;;;;;5026389;28;20492;-72
2022/06/17 14:29:00;;;;;;;4.67;4.27;;;24.00;99.90;;;;;;5036509;28;20615;-72
2022/06/17 14:31:51;;;;;;;4.83;4.43;;;24.00;99.90;;;;;;5039451;28;21011;-73
2022/06/17 14:35:01;;;;;;;4.97;4.50;;;24.00;99.90;;;;;;5043843;28;20477;-72
2022/06/17 14:37:51;;;;;;;5.10;4.60;;;24.00;99.90;;;;;;5043962;28;21419;-73
2022/06/17 14:43:54;;;;;;;4.27;3.87;;;24.00;99.90;;;;;;5041064;28;20953;-73
2022/06/17 14:47:16;;;;;;;5.67;4.30;;;24.00;99.90;;;;;;5042355;28;20451;-73
2022/06/17 14:50:25;;;;;;;5.00;4.57;;;24.00;99.90;;;;;;5036390;28;20468;-73
2022/06/17 14:53:27;;;;;;;4.80;4.40;;;24.00;99.90;;;;;;5044253;28;20482;-73
2022/06/17 14:56:42;;;;;;;5.03;4.30;;;24.00;99.90;;;;;;5042357;28;20484;-73
2022/06/17 14:59:35;;;;;;;4.90;4.50;;;24.00;99.90;;;;;;5039096;28;20454;-73
2022/06/17 15:02:38;;;;;;;4.83;4.30;;;24.00;99.90;;;;;;5042300;28;20433;-73
2022/06/17 15:05:31;;;;;;;5.20;4.70;;;24.00;99.90;;;;;;5040156;28;20544;-73
2022/06/17 15:08:29;;;;;;;6.93;4.30;;;23.90;99.90;;;;;;5040751;28;20534;-73
2022/06/17 15:11:24;;;;;;;4.83;4.33;;;23.90;99.90;;;;;;5047536;28;20493;-73
2022/06/17 15:14:17;;;;;;;5.07;4.50;;;23.90;99.90;;;;;;5044081;28;20493;-73
2022/06/17 15:17:16;;;;;;;4.37;4.07;;;23.90;99.90;;;;;;5053963;28;20453;-73
2022/06/17 15:20:11;;;;;;;4.63;3.90;;;23.80;99.90;;;;;;5051357;28;20450;-73
2022/06/17 15:23:25;;;;;;;5.60;4.80;;;23.80;99.90;;;;;;5044587;28;20977;-72
2022/06/17 15:26:19;;;;;;;5.87;4.40;;;23.80;99.90;;;;;;5042384;28;20477;-73
2022/06/17 15:29:14;;;;;;;5.90;4.27;;;23.70;99.90;;;;;;5042573;28;20736;-73
2022/06/17 15:32:15;;;;;;;5.70;4.13;;;23.70;99.90;;;;;;5047511;28;21043;-73
2022/06/17 15:35:09;;;;;;;4.87;4.03;;;23.70;99.90;;;;;;5041861;28;20560;-72
2022/06/17 15:38:04;;;;;;;5.23;4.60;;;23.60;99.90;;;;;;5036675;28;20522;-72